createdAt,value
2023-02-27T00:00:28.294Z,16.00
2023-02-27T00:03:15.552Z,8.23
2023-02-27T00:05:42.790Z,12.70
2023-02-27T00:08:10.099Z,8.85
2023-02-27T00:10:37.012Z,14.98
2023-02-27T00:13:04.679Z,18.88
2023-02-27T00:15:32.228Z,13.05
2023-02-27T00:18:00.191Z,12.48
2023-02-27T00:20:27.279Z,7.82
2023-02-27T00:22:54.707Z,4.82
2023-02-27T00:25:21.658Z,4.85
2023-02-27T00:27:49.091Z,6.45
2023-02-27T00:30:16.680Z,5.53
2023-02-27T00:32:44.328Z,6.60
2023-02-27T00:35:12.460Z,9.27
2023-02-27T00:37:40.256Z,6.57
2023-02-27T00:40:08.560Z,5.40
2023-02-27T00:42:36.234Z,4.45
2023-02-27T00:45:05.249Z,5.22
2023-02-27T00:47:33.957Z,5.35
2023-02-27T00:50:01.602Z,4.47
2023-02-27T00:52:28.988Z,4.40
2023-02-27T00:54:55.986Z,3.78
2023-02-27T00:57:23.588Z,4.80
2023-02-27T00:59:50.583Z,5.15
2023-02-27T01:02:18.007Z,5.47
2023-02-27T01:04:44.972Z,5.72
2023-02-27T01:07:13.133Z,6.35
2023-02-27T01:09:40.099Z,5.85
2023-02-27T01:12:07.662Z,21.55
2023-02-27T01:14:35.524Z,9.02
2023-02-27T01:17:03.217Z,9.35
2023-02-27T01:19:30.246Z,6.05
2023-02-27T01:21:57.547Z,5.63
2023-02-27T01:24:25.021Z,4.15
2023-02-27T01:26:52.749Z,4.03
2023-02-27T01:29:19.866Z,2.92
2023-02-27T01:31:48.689Z,4.35
2023-02-27T01:34:16.609Z,3.53
2023-02-27T01:36:44.043Z,2.20
2023-02-27T01:39:11.129Z,3.50
2023-02-27T01:41:38.435Z,5.50
2023-02-27T01:44:06.848Z,2.90
2023-02-27T01:46:35.438Z,3.25
2023-02-27T01:49:18.870Z,4.53
2023-02-27T01:52:10.900Z,3.72
2023-02-27T01:54:40.810Z,2.70
2023-02-27T01:57:09.649Z,3.80
2023-02-27T01:59:40.956Z,3.13
2023-02-27T02:02:18.501Z,6.90
2023-02-27T02:04:46.335Z,4.72
2023-02-27T02:07:17.532Z,3.25
2023-02-27T02:09:49.003Z,3.03
2023-02-27T02:12:18.554Z,4.00
2023-02-27T02:14:45.569Z,5.25
2023-02-27T02:17:15.827Z,4.28
2023-02-27T02:20:01.482Z,4.70
2023-02-27T02:22:50.251Z,10.63
2023-02-27T02:25:44.974Z,14.13
2023-02-27T02:28:15.323Z,10.73
2023-02-27T02:30:48.172Z,6.82
2023-02-27T02:33:52.822Z,10.43
2023-02-27T02:36:30.845Z,14.60
2023-02-27T02:39:25.998Z,8.40
2023-02-27T02:42:18.812Z,4.47
2023-02-27T02:45:12.302Z,4.75
2023-02-27T02:47:51.300Z,4.07
2023-02-27T02:50:33.664Z,2.88
2023-02-27T02:53:05.058Z,2.38
2023-02-27T02:56:08.732Z,2.42
2023-02-27T02:58:54.985Z,2.80
2023-02-27T03:01:37.366Z,7.22
2023-02-27T03:04:16.715Z,9.60
2023-02-27T03:06:54.584Z,4.40
2023-02-27T03:09:37.034Z,3.20
2023-02-27T03:12:09.045Z,3.55
2023-02-27T03:14:58.570Z,3.28
2023-02-27T03:17:48.879Z,2.70
2023-02-27T03:20:31.085Z,2.40
2023-02-27T03:23:02.066Z,3.10
2023-02-27T03:25:29.537Z,2.30
2023-02-27T03:28:03.865Z,2.03
2023-02-27T03:31:10.175Z,2.38
2023-02-27T03:33:47.488Z,2.38
2023-02-27T03:36:49.200Z,2.28
2023-02-27T03:39:16.573Z,2.13
2023-02-27T03:41:52.807Z,1.98
2023-02-27T03:44:26.401Z,2.65
2023-02-27T03:49:21.080Z,2.20
2023-02-27T03:51:48.128Z,2.85
2023-02-27T03:54:20.740Z,2.45
2023-02-27T03:57:07.248Z,84.37
2023-02-27T03:59:36.945Z,9.40
2023-02-27T04:02:04.600Z,3.47
2023-02-27T04:04:32.970Z,3.33
2023-02-27T04:07:22.706Z,2.97
2023-02-27T04:10:13.994Z,3.15
2023-02-27T04:13:09.306Z,7.97
2023-02-27T04:15:51.919Z,67.80
2023-02-27T04:18:46.785Z,57.42
2023-02-27T04:21:42.996Z,24.58
2023-02-27T04:24:34.639Z,71.95
2023-02-27T04:27:14.078Z,77.32
2023-02-27T04:29:52.928Z,38.35
2023-02-27T04:33:00.124Z,8.20
2023-02-27T04:35:31.887Z,9.45
2023-02-27T04:38:06.217Z,8.25
2023-02-27T04:40:58.654Z,5.00
2023-02-27T04:43:28.348Z,3.60
2023-02-27T04:45:58.638Z,3.92
2023-02-27T04:48:30.260Z,4.13
2023-02-27T04:51:07.113Z,4.97
2023-02-27T04:53:48.624Z,4.57
2023-02-27T04:56:24.876Z,5.72
2023-02-27T04:58:57.117Z,4.88
2023-02-27T05:01:31.511Z,2.78
2023-02-27T05:04:00.605Z,3.85
2023-02-27T05:06:32.224Z,2.85
2023-02-27T05:09:35.540Z,4.15
2023-02-27T05:12:02.441Z,226.30
2023-02-27T05:14:45.479Z,210.65
2023-02-27T05:17:18.416Z,343.35
2023-02-27T05:19:46.843Z,81.18
2023-02-27T05:22:29.356Z,45.35
2023-02-27T05:25:08.958Z,43.22
2023-02-27T05:27:44.870Z,49.08
2023-02-27T05:30:42.623Z,43.50
2023-02-27T05:33:26.136Z,286.27
2023-02-27T05:36:09.967Z,124.85
2023-02-27T05:41:12.035Z,44.50
2023-02-27T05:44:03.023Z,30.15
2023-02-27T05:46:38.022Z,43.90
2023-02-27T05:49:19.320Z,26.15
2023-02-27T05:51:50.240Z,32.83
2023-02-27T05:54:27.662Z,120.57
2023-02-27T05:56:58.435Z,360.45
2023-02-27T05:59:28.362Z,266.98
2023-02-27T06:01:55.836Z,126.78
2023-02-27T06:04:22.844Z,106.07
2023-02-27T06:06:50.158Z,49.15
2023-02-27T06:09:17.099Z,82.22
2023-02-27T06:11:44.704Z,53.33
2023-02-27T06:14:11.757Z,38.22
2023-02-27T06:16:39.550Z,31.52
2023-02-27T06:19:06.961Z,73.55
2023-02-27T06:21:34.517Z,77.90
2023-02-27T06:24:01.484Z,43.78
2023-02-27T06:26:29.006Z,33.70
2023-02-27T06:28:56.139Z,12.20
2023-02-27T06:31:23.398Z,9.05
2023-02-27T06:33:50.360Z,8.90
2023-02-27T06:36:17.890Z,6.88
2023-02-27T06:38:44.876Z,3.78
2023-02-27T06:41:12.565Z,4.03
2023-02-27T06:43:39.579Z,4.00
2023-02-27T06:46:06.879Z,3.55
2023-02-27T06:48:34.097Z,3.65
2023-02-27T06:51:01.353Z,4.07
2023-02-27T06:53:28.369Z,4.68
2023-02-27T06:55:55.720Z,4.90
2023-02-27T06:58:24.728Z,4.63
2023-02-27T07:00:52.815Z,5.28
2023-02-27T07:03:19.754Z,5.78
2023-02-27T07:05:47.140Z,4.82
2023-02-27T07:08:17.457Z,4.93
2023-02-27T07:10:47.032Z,5.10
2023-02-27T07:13:16.488Z,5.43
2023-02-27T07:15:45.202Z,5.65
2023-02-27T07:18:12.483Z,5.90
2023-02-27T07:20:40.265Z,5.70
2023-02-27T07:23:07.470Z,6.35
2023-02-27T07:25:34.776Z,7.43
2023-02-27T07:28:01.886Z,7.55
2023-02-27T07:30:30.811Z,14.98
2023-02-27T07:32:57.860Z,46.22
2023-02-27T07:35:25.182Z,15.23
2023-02-27T07:37:52.575Z,9.25
2023-02-27T07:40:19.934Z,8.02
2023-02-27T07:42:52.717Z,6.63
2023-02-27T07:47:47.360Z,6.35
2023-02-27T07:50:14.691Z,18.10
2023-02-27T07:52:42.868Z,15.73
2023-02-27T07:55:12.261Z,22.70
2023-02-27T07:57:39.336Z,115.03
2023-02-27T08:00:09.421Z,32.17
2023-02-27T08:02:36.720Z,30.38
2023-02-27T08:05:05.154Z,19.38
2023-02-27T08:07:32.167Z,16.25
2023-02-27T08:09:59.508Z,20.70
2023-02-27T08:12:26.600Z,19.23
2023-02-27T08:14:54.043Z,16.25
2023-02-27T08:17:21.173Z,12.43
2023-02-27T08:19:48.539Z,12.68
2023-02-27T08:22:15.595Z,12.13
2023-02-27T08:24:42.997Z,5.88
2023-02-27T08:27:09.929Z,12.35
2023-02-27T08:29:37.765Z,7.88
2023-02-27T08:32:05.122Z,8.68
2023-02-27T08:34:32.418Z,7.47
2023-02-27T08:36:59.567Z,7.13
2023-02-27T08:39:26.885Z,6.75
2023-02-27T08:41:53.938Z,8.13
2023-02-27T08:44:21.243Z,9.30
2023-02-27T08:46:48.225Z,11.35
2023-02-27T08:49:15.596Z,10.10
2023-02-27T08:51:42.545Z,8.77
2023-02-27T08:54:09.799Z,8.93
2023-02-27T08:56:36.886Z,8.57
2023-02-27T08:59:04.225Z,9.00
2023-02-27T09:01:34.488Z,11.30
2023-02-27T09:04:03.267Z,12.40
2023-02-27T09:06:31.571Z,11.15
2023-02-27T09:08:59.277Z,10.93
2023-02-27T09:11:27.882Z,7.75
2023-02-27T09:13:55.543Z,6.47
2023-02-27T09:16:23.477Z,6.97
2023-02-27T09:18:51.239Z,5.32
2023-02-27T09:21:18.446Z,5.18
2023-02-27T09:23:45.768Z,5.18
2023-02-27T09:26:12.763Z,6.07
2023-02-27T09:28:40.098Z,7.60
2023-02-27T09:31:08.258Z,8.30
2023-02-27T09:33:37.379Z,6.82
2023-02-27T09:36:06.151Z,6.63
2023-02-27T09:38:34.810Z,6.00
2023-02-27T09:41:02.862Z,5.93
2023-02-27T09:43:51.354Z,6.90
2023-02-27T09:46:21.258Z,12.77
2023-02-27T09:49:01.167Z,5.53
2023-02-27T09:51:29.218Z,4.22
2023-02-27T09:54:00.430Z,3.97
2023-02-27T09:56:39.843Z,4.63
2023-02-27T09:59:16.120Z,4.70
2023-02-27T10:02:06.068Z,5.05
2023-02-27T10:05:02.383Z,4.75
2023-02-27T10:08:01.568Z,4.90
2023-02-27T10:10:34.730Z,7.10
2023-02-27T10:13:13.667Z,7.32
2023-02-27T10:15:47.282Z,5.40
2023-02-27T10:18:26.999Z,9.02
2023-02-27T10:21:13.967Z,4.97
2023-02-27T10:23:50.915Z,5.07
2023-02-27T10:26:27.553Z,4.68
2023-02-27T10:28:54.557Z,5.00
2023-02-27T10:31:26.415Z,4.45
2023-02-27T10:33:55.396Z,5.03
2023-02-27T10:36:33.702Z,5.40
2023-02-27T10:39:11.054Z,4.68
2023-02-27T10:41:39.994Z,3.90
2023-02-27T10:44:07.228Z,4.28
2023-02-27T10:46:38.541Z,4.35
2023-02-27T10:49:19.188Z,6.15
2023-02-27T10:52:03.257Z,3.97
2023-02-27T10:54:30.172Z,4.27
2023-02-27T10:57:00.970Z,4.45
2023-02-27T10:59:38.544Z,4.45
2023-02-27T11:02:21.326Z,4.50
2023-02-27T11:04:54.027Z,4.82
2023-02-27T11:07:37.167Z,6.68
2023-02-27T11:10:04.124Z,4.27
2023-02-27T11:12:34.027Z,4.60
2023-02-27T11:15:15.277Z,4.38
2023-02-27T11:17:43.676Z,4.80
2023-02-27T11:20:37.602Z,4.75
2023-02-27T11:23:15.987Z,4.55
2023-02-27T11:25:43.629Z,4.57
2023-02-27T11:28:19.007Z,4.28
2023-02-27T11:30:59.946Z,5.88
2023-02-27T11:33:29.453Z,6.05
2023-02-27T11:35:58.306Z,5.95
2023-02-27T11:38:28.852Z,6.07
2023-02-27T11:41:00.446Z,6.28
2023-02-27T11:43:36.442Z,9.00
2023-02-27T11:46:41.397Z,7.03
2023-02-27T11:49:01.097Z,5.32
2023-02-27T11:51:55.011Z,12.05
2023-02-27T11:54:50.236Z,9.30
2023-02-27T11:57:34.814Z,5.78
2023-02-27T12:00:20.449Z,5.43
2023-02-27T12:02:50.236Z,9.48
2023-02-27T12:05:42.725Z,6.28
2023-02-27T12:08:09.585Z,5.47
2023-02-27T12:11:07.777Z,5.30
2023-02-27T12:13:43.411Z,6.70
2023-02-27T12:16:19.573Z,7.15
2023-02-27T12:19:15.233Z,9.95
2023-02-27T12:21:49.547Z,6.45
2023-02-27T12:24:32.648Z,9.25
2023-02-27T12:27:21.533Z,9.13
2023-02-27T12:29:56.104Z,8.57
2023-02-27T12:32:28.069Z,6.95
2023-02-27T12:34:56.942Z,6.25
2023-02-27T12:37:27.647Z,6.57
2023-02-27T12:39:58.061Z,18.17
2023-02-27T12:42:35.321Z,10.20
2023-02-27T12:45:26.715Z,10.30
2023-02-27T12:48:15.303Z,7.60
2023-02-27T12:51:30.060Z,7.57
2023-02-27T12:54:13.962Z,9.23
2023-02-27T12:57:11.242Z,6.57
2023-02-27T13:00:11.767Z,7.82
2023-02-27T13:03:13.105Z,14.80
2023-02-27T13:05:55.587Z,6.95
2023-02-27T13:09:01.585Z,35.42
2023-02-27T13:11:54.105Z,16.23
2023-02-27T13:14:30.905Z,9.88
2023-02-27T13:17:16.222Z,9.00
2023-02-27T13:20:18.112Z,10.05
2023-02-27T13:22:51.886Z,7.72
2023-02-27T13:27:52.030Z,10.05
2023-02-27T13:30:27.421Z,16.23
2023-02-27T13:32:57.472Z,11.98
2023-02-27T13:35:43.579Z,19.75
2023-02-27T13:38:33.585Z,30.77
2023-02-27T13:41:22.154Z,11.45
2023-02-27T13:43:57.416Z,16.00
2023-02-27T13:46:26.292Z,15.95
2023-02-27T13:49:10.606Z,12.80
2023-02-27T13:51:39.791Z,12.63
2023-02-27T13:54:16.360Z,9.40
2023-02-27T13:56:43.239Z,12.00
2023-02-27T13:59:30.369Z,13.40
2023-02-27T14:02:25.856Z,10.82
2023-02-27T14:04:56.735Z,12.02
2023-02-27T14:07:27.535Z,12.93
2023-02-27T14:10:11.673Z,12.75
2023-02-27T14:12:45.830Z,9.65
2023-02-27T14:15:23.088Z,8.15
2023-02-27T14:17:56.798Z,7.88
2023-02-27T14:20:30.802Z,8.65
2023-02-27T14:23:15.877Z,11.77
2023-02-27T14:26:11.644Z,9.93
2023-02-27T14:28:55.635Z,7.97
2023-02-27T14:31:36.655Z,8.90
2023-02-27T14:34:09.021Z,12.02
2023-02-27T14:36:50.085Z,11.13
2023-02-27T14:39:30.084Z,8.13
2023-02-27T14:42:20.643Z,13.43
2023-02-27T14:44:49.818Z,9.88
2023-02-27T14:47:17.298Z,13.13
2023-02-27T14:49:47.296Z,11.70
2023-02-27T14:52:24.835Z,11.30
2023-02-27T14:54:53.305Z,14.98
2023-02-27T14:57:28.851Z,9.57
2023-02-27T14:59:56.202Z,7.63
2023-02-27T15:02:30.631Z,12.60
2023-02-27T15:05:03.565Z,16.20
2023-02-27T15:07:33.660Z,8.05
2023-02-27T15:10:04.728Z,12.90
2023-02-27T15:12:38.424Z,23.23
2023-02-27T15:15:07.774Z,17.50
2023-02-27T15:17:43.511Z,18.65
2023-02-27T15:20:30.627Z,12.50
2023-02-27T15:23:04.195Z,10.27
2023-02-27T15:25:37.462Z,13.27
2023-02-27T15:28:08.014Z,12.13
2023-02-27T15:30:35.008Z,9.55
2023-02-27T15:33:02.851Z,10.30
2023-02-27T15:35:37.466Z,11.18
2023-02-27T15:38:05.372Z,12.80
2023-02-27T15:40:34.308Z,13.98
2023-02-27T15:43:02.061Z,14.55
2023-02-27T15:45:35.061Z,22.52
2023-02-27T15:48:03.724Z,12.02
2023-02-27T15:50:37.480Z,11.65
2023-02-27T15:53:07.554Z,13.45
2023-02-27T15:55:37.630Z,15.32
2023-02-27T15:58:27.750Z,25.00
2023-02-27T16:01:07.307Z,40.35
2023-02-27T16:03:38.942Z,35.95
2023-02-27T16:06:19.481Z,13.52
2023-02-27T16:08:52.037Z,33.42
2023-02-27T16:11:24.353Z,187.15
2023-02-27T16:13:52.426Z,82.22
2023-02-27T16:16:22.393Z,6.50
2023-02-27T16:18:55.386Z,5.50
2023-02-27T16:21:25.272Z,17.38
2023-02-27T16:23:53.873Z,14.32
2023-02-27T16:26:30.951Z,11.00
2023-02-27T16:29:18.164Z,11.68
2023-02-27T16:31:58.244Z,10.00
2023-02-27T16:34:46.516Z,18.88
2023-02-27T16:37:19.575Z,12.73
2023-02-27T16:39:46.931Z,10.95
2023-02-27T16:42:13.881Z,22.27
2023-02-27T16:44:41.205Z,23.60
2023-02-27T16:47:09.243Z,25.08
2023-02-27T16:49:36.583Z,28.67
2023-02-27T16:52:05.531Z,121.57
2023-02-27T16:54:33.205Z,23.08
2023-02-27T16:57:00.168Z,132.63
2023-02-27T16:59:34.969Z,69.05
2023-02-27T17:02:05.287Z,49.95
2023-02-27T17:04:32.970Z,54.17
2023-02-27T17:07:01.351Z,92.32
2023-02-27T17:09:29.263Z,99.63
2023-02-27T17:11:57.111Z,76.25
2023-02-27T17:14:25.070Z,64.32
2023-02-27T17:16:52.099Z,125.22
2023-02-27T17:19:21.477Z,231.45
2023-02-27T17:21:50.475Z,57.88
2023-02-27T17:24:17.976Z,55.00
2023-02-27T17:26:44.960Z,54.90
2023-02-27T17:29:12.478Z,90.97
2023-02-27T17:31:41.589Z,129.65
2023-02-27T17:34:09.029Z,80.28
2023-02-27T17:36:36.229Z,84.60
2023-02-27T17:39:04.465Z,64.82
2023-02-27T17:41:32.367Z,52.47
2023-02-27T17:44:01.732Z,54.05
2023-02-27T17:46:30.447Z,73.28
2023-02-27T17:49:00.557Z,68.35
2023-02-27T17:51:29.092Z,59.95
2023-02-27T17:53:57.570Z,58.78
2023-02-27T17:56:24.527Z,61.28
2023-02-27T17:58:51.923Z,53.60
2023-02-27T18:01:21.550Z,51.63
2023-02-27T18:03:50.239Z,58.22
2023-02-27T18:06:17.807Z,53.97
2023-02-27T18:08:45.441Z,70.13
2023-02-27T18:11:18.519Z,59.22
2023-02-27T18:13:47.568Z,65.22
2023-02-27T18:16:15.326Z,69.88
2023-02-27T18:18:43.044Z,48.22
2023-02-27T18:21:13.449Z,59.13
2023-02-27T18:23:41.248Z,79.93
2023-02-27T18:26:12.458Z,67.13
2023-02-27T18:28:44.584Z,62.20
2023-02-27T18:31:19.610Z,43.60
2023-02-27T18:33:47.190Z,90.93
2023-02-27T18:36:14.328Z,69.15
2023-02-27T18:38:41.852Z,51.28
2023-02-27T18:41:12.535Z,41.67
2023-02-27T18:43:41.670Z,59.67
2023-02-27T18:46:11.003Z,43.42
2023-02-27T18:48:39.027Z,32.20
2023-02-27T18:51:12.244Z,27.50
2023-02-27T18:53:44.248Z,35.58
2023-02-27T18:56:12.204Z,29.55
2023-02-27T18:58:39.975Z,22.73
2023-02-27T19:01:07.589Z,37.92
2023-02-27T19:03:36.004Z,47.63
2023-02-27T19:06:03.564Z,56.78
2023-02-27T19:08:31.463Z,52.60
2023-02-27T19:10:59.170Z,104.28
2023-02-27T19:13:26.987Z,77.13
2023-02-27T19:15:54.781Z,38.00
2023-02-27T19:18:22.149Z,26.95
2023-02-27T19:20:49.201Z,33.72
2023-02-27T19:23:16.526Z,67.95
2023-02-27T19:25:43.537Z,88.70
2023-02-27T19:28:11.541Z,81.57
2023-02-27T19:30:39.565Z,68.40
2023-02-27T19:33:07.332Z,66.50
2023-02-27T19:35:34.350Z,83.97
2023-02-27T19:38:01.700Z,35.30
2023-02-27T19:40:28.673Z,29.73
2023-02-27T19:42:56.075Z,36.40
2023-02-27T19:45:23.513Z,25.85
2023-02-27T19:47:50.805Z,18.63
2023-02-27T19:50:18.006Z,15.88
2023-02-27T19:52:45.261Z,21.00
2023-02-27T19:55:12.245Z,26.45
2023-02-27T19:57:39.864Z,19.85
2023-02-27T20:00:10.054Z,18.80
2023-02-27T20:02:40.318Z,12.23
2023-02-27T20:05:07.863Z,14.98
2023-02-27T20:07:37.153Z,17.05
2023-02-27T20:10:06.767Z,15.85
2023-02-27T20:12:34.177Z,12.88
2023-02-27T20:15:08.195Z,12.18
2023-02-27T20:17:35.602Z,9.70
2023-02-27T20:20:04.892Z,10.85
2023-02-27T20:22:32.920Z,14.02
2023-02-27T20:25:00.104Z,35.03
2023-02-27T20:27:28.011Z,43.28
2023-02-27T20:29:55.919Z,54.00
2023-02-27T20:32:24.577Z,240.00
2023-02-27T20:34:54.182Z,25.15
2023-02-27T20:37:23.453Z,17.73
2023-02-27T20:39:50.815Z,16.23
2023-02-27T20:42:18.161Z,18.60
2023-02-27T20:44:45.178Z,17.63
2023-02-27T20:47:12.543Z,39.50
2023-02-27T20:49:39.737Z,24.95
2023-02-27T20:52:06.994Z,29.10
2023-02-27T20:54:33.977Z,24.42
2023-02-27T20:57:01.246Z,23.95
2023-02-27T20:59:28.221Z,21.08
2023-02-27T21:01:56.121Z,43.13
2023-02-27T21:04:42.553Z,23.45
2023-02-27T21:07:11.545Z,19.55
2023-02-27T21:09:38.608Z,16.90
2023-02-27T21:12:06.676Z,17.10
2023-02-27T21:14:34.138Z,15.95
2023-02-27T21:17:01.543Z,15.23
2023-02-27T21:19:28.679Z,15.93
2023-02-27T21:21:56.130Z,14.93
2023-02-27T21:24:23.240Z,14.40
2023-02-27T21:26:50.679Z,25.83
2023-02-27T21:29:20.109Z,29.65
2023-02-27T21:31:54.587Z,23.50
2023-02-27T21:34:25.865Z,23.77
2023-02-27T21:36:54.148Z,25.67
2023-02-27T21:39:30.992Z,18.83
2023-02-27T21:42:02.276Z,18.38
2023-02-27T21:44:29.700Z,20.13
2023-02-27T21:46:56.948Z,20.77
2023-02-27T21:49:28.768Z,19.73
2023-02-27T21:51:56.044Z,19.10
2023-02-27T21:54:23.674Z,20.42
2023-02-27T21:56:51.281Z,24.55
2023-02-27T21:59:20.128Z,30.30
2023-02-27T22:01:48.178Z,31.52
2023-02-27T22:04:17.097Z,30.95
2023-02-27T22:06:44.822Z,30.20
2023-02-27T22:09:12.054Z,28.13
2023-02-27T22:11:40.856Z,24.50
2023-02-27T22:14:09.006Z,34.22
2023-02-27T22:16:36.332Z,41.72
2023-02-27T22:19:08.478Z,37.30
2023-02-27T22:21:37.545Z,20.85
2023-02-27T22:24:05.109Z,20.45
2023-02-27T22:26:33.457Z,18.25
2023-02-27T22:29:02.246Z,17.17
2023-02-27T22:31:35.549Z,22.98
2023-02-27T22:34:05.744Z,22.30
2023-02-27T22:36:34.073Z,18.95
2023-02-27T22:39:01.841Z,17.30
2023-02-27T22:41:35.772Z,17.27
2023-02-27T22:44:03.703Z,17.55
2023-02-27T22:46:40.656Z,16.90
2023-02-27T22:49:12.516Z,17.85
2023-02-27T22:51:39.797Z,16.23
2023-02-27T22:54:07.702Z,16.92
2023-02-27T22:56:36.512Z,20.40
2023-02-27T22:59:06.038Z,25.77
2023-02-27T23:01:36.046Z,22.65
2023-02-27T23:04:06.586Z,14.23
2023-02-27T23:06:36.860Z,10.25
2023-02-27T23:09:05.970Z,9.10
2023-02-27T23:11:33.763Z,6.53
2023-02-27T23:14:00.703Z,7.28
2023-02-27T23:16:28.285Z,6.22
2023-02-27T23:18:58.044Z,7.93
2023-02-27T23:21:31.915Z,7.85
2023-02-27T23:23:59.092Z,8.43
2023-02-27T23:26:29.341Z,8.38
2023-02-27T23:28:56.989Z,9.23
2023-02-27T23:31:24.305Z,7.13
2023-02-27T23:33:51.330Z,6.47
2023-02-27T23:36:18.653Z,6.90
2023-02-27T23:38:46.658Z,7.45
2023-02-27T23:41:20.625Z,7.65
2023-02-27T23:46:19.166Z,6.10
2023-02-27T23:48:47.764Z,5.32
2023-02-27T23:51:15.386Z,7.45
2023-02-27T23:53:42.969Z,5.80
2023-02-27T23:56:22.746Z,6.22
2023-02-27T23:58:54.820Z,27.80
